createdAt,value
2023-05-02T00:00:04.330Z,14.52
2023-05-02T00:02:34.116Z,14.95
2023-05-02T00:05:01.649Z,13.65
2023-05-02T00:07:30.825Z,15.90
2023-05-02T00:09:58.595Z,13.25
2023-05-02T00:12:26.363Z,15.93
2023-05-02T00:14:54.072Z,14.77
2023-05-02T00:17:22.038Z,14.88
2023-05-02T00:19:49.812Z,15.60
2023-05-02T00:22:17.425Z,16.33
2023-05-02T00:24:45.071Z,15.95
2023-05-02T00:27:12.603Z,14.20
2023-05-02T00:29:41.166Z,13.00
2023-05-02T00:32:08.796Z,15.55
2023-05-02T00:34:36.422Z,15.88
2023-05-02T00:37:03.961Z,14.52
2023-05-02T00:39:31.458Z,15.40
2023-05-02T00:42:00.165Z,13.20
2023-05-02T00:44:28.455Z,14.35
2023-05-02T00:46:57.007Z,13.95
2023-05-02T00:49:25.131Z,17.10
2023-05-02T00:51:54.159Z,15.57
2023-05-02T00:54:22.022Z,16.65
2023-05-02T00:56:49.478Z,13.00
2023-05-02T00:59:18.282Z,13.00
2023-05-02T01:01:48.810Z,13.48
2023-05-02T01:04:29.559Z,12.15
2023-05-02T01:07:23.887Z,14.10
2023-05-02T01:10:30.177Z,14.95
2023-05-02T01:13:04.802Z,14.95
2023-05-02T01:15:35.217Z,13.98
2023-05-02T01:18:04.713Z,10.63
2023-05-02T01:20:37.282Z,11.93
2023-05-02T01:23:14.334Z,14.52
2023-05-02T01:26:03.964Z,13.65
2023-05-02T01:29:00.004Z,11.95
2023-05-02T01:31:32.355Z,12.07
2023-05-02T01:34:01.311Z,10.75
2023-05-02T01:36:31.918Z,11.82
2023-05-02T01:39:02.151Z,12.63
2023-05-02T01:41:32.432Z,12.75
2023-05-02T01:44:02.505Z,11.55
2023-05-02T01:46:37.013Z,10.32
2023-05-02T01:49:07.704Z,10.77
2023-05-02T01:51:41.439Z,10.57
2023-05-02T01:54:10.871Z,10.30
2023-05-02T01:56:40.029Z,10.85
2023-05-02T01:59:17.632Z,9.15
2023-05-02T02:01:46.541Z,6.75
2023-05-02T02:04:16.580Z,11.35
2023-05-02T02:06:48.907Z,10.48
2023-05-02T02:09:16.512Z,9.05
2023-05-02T02:11:52.969Z,8.30
2023-05-02T02:14:28.846Z,8.10
2023-05-02T02:29:47.451Z,7.15
2023-05-02T02:32:15.207Z,7.55
2023-05-02T02:34:42.826Z,8.18
2023-05-02T02:37:26.862Z,6.93
2023-05-02T02:40:03.910Z,7.32
2023-05-02T02:42:48.559Z,7.78
2023-05-02T02:45:28.017Z,7.57
2023-05-02T02:48:22.932Z,7.50
2023-05-02T02:51:15.136Z,4.70
2023-05-02T02:53:50.475Z,7.00
2023-05-02T02:56:27.883Z,7.28
2023-05-02T02:59:01.079Z,7.60
2023-05-02T03:01:32.809Z,5.97
2023-05-02T03:04:04.715Z,5.43
2023-05-02T03:06:32.730Z,6.13
2023-05-02T03:09:01.956Z,6.75
2023-05-02T03:11:30.847Z,6.22
2023-05-02T03:13:59.069Z,5.45
2023-05-02T03:16:40.473Z,5.70
2023-05-02T03:19:12.528Z,5.75
2023-05-02T03:21:40.046Z,5.40
2023-05-02T03:26:42.027Z,5.60
2023-05-02T03:29:12.319Z,5.00
2023-05-02T03:31:43.020Z,5.75
2023-05-02T03:34:10.566Z,5.50
2023-05-02T03:36:39.111Z,4.80
2023-05-02T03:39:07.096Z,5.13
2023-05-02T03:41:36.112Z,4.75
2023-05-02T03:44:08.203Z,4.13
2023-05-02T03:46:36.370Z,4.43
2023-05-02T03:49:07.775Z,4.97
2023-05-02T03:51:36.330Z,5.32
2023-05-02T03:54:04.498Z,5.30
2023-05-02T03:56:33.622Z,5.43
2023-05-02T03:59:15.168Z,5.05
2023-05-02T04:01:43.590Z,4.85
2023-05-02T04:04:14.008Z,4.15
2023-05-02T04:06:47.677Z,5.20
2023-05-02T04:09:16.520Z,4.03
2023-05-02T04:11:52.291Z,4.80
2023-05-02T04:14:19.943Z,4.85
2023-05-02T04:16:52.565Z,5.10
2023-05-02T04:19:35.450Z,4.80
2023-05-02T04:22:04.099Z,4.53
2023-05-02T04:24:35.725Z,5.05
2023-05-02T04:27:03.820Z,4.18
2023-05-02T04:29:32.150Z,4.80
2023-05-02T04:32:00.004Z,4.13
2023-05-02T04:34:29.647Z,4.90
2023-05-02T04:36:57.191Z,5.10
2023-05-02T04:39:26.189Z,5.15
2023-05-02T04:42:00.257Z,5.15
2023-05-02T04:44:29.378Z,4.85
2023-05-02T04:46:57.843Z,4.82
2023-05-02T04:49:25.343Z,4.68
2023-05-02T04:51:53.534Z,4.70
2023-05-02T04:54:22.785Z,4.97
2023-05-02T04:56:50.686Z,4.47
2023-05-02T04:59:19.473Z,4.60
2023-05-02T05:01:47.138Z,4.82
2023-05-02T05:04:14.914Z,5.10
2023-05-02T05:06:42.887Z,4.57
2023-05-02T05:09:11.097Z,4.80
2023-05-02T05:11:39.688Z,4.30
2023-05-02T05:14:07.832Z,4.53
2023-05-02T05:16:38.309Z,4.50
2023-05-02T05:19:05.838Z,4.28
2023-05-02T05:21:33.738Z,4.80
2023-05-02T05:24:03.001Z,4.32
2023-05-02T05:26:30.489Z,4.28
2023-05-02T05:28:59.070Z,4.57
2023-05-02T05:31:30.926Z,4.57
2023-05-02T05:34:01.677Z,4.32
2023-05-02T05:36:31.660Z,4.57
2023-05-02T05:38:59.150Z,3.63
2023-05-02T05:41:27.117Z,4.38
2023-05-02T05:44:01.615Z,4.00
2023-05-02T05:46:30.547Z,3.85
2023-05-02T05:48:58.746Z,3.95
2023-05-02T05:51:28.807Z,4.18
2023-05-02T05:53:59.165Z,4.38
2023-05-02T05:56:27.283Z,4.38
2023-05-02T05:59:01.154Z,4.18
2023-05-02T06:01:28.624Z,4.05
2023-05-02T06:03:56.981Z,4.22
2023-05-02T06:06:24.487Z,3.85
2023-05-02T06:08:52.084Z,3.85
2023-05-02T06:11:21.138Z,2.97
2023-05-02T06:13:48.703Z,3.90
2023-05-02T06:16:16.654Z,3.60
2023-05-02T06:18:50.825Z,3.25
2023-05-02T06:21:18.300Z,4.15
2023-05-02T06:23:46.327Z,3.90
2023-05-02T06:26:13.831Z,4.00
2023-05-02T06:28:41.396Z,3.70
2023-05-02T06:31:09.027Z,3.65
2023-05-02T06:33:37.139Z,3.60
2023-05-02T06:36:04.674Z,3.78
2023-05-02T06:38:32.228Z,3.50
2023-05-02T06:40:59.734Z,4.30
2023-05-02T06:43:27.701Z,4.00
2023-05-02T06:45:56.597Z,3.97
2023-05-02T06:48:24.038Z,3.50
2023-05-02T06:50:54.615Z,3.42
2023-05-02T06:53:22.068Z,3.92
2023-05-02T06:55:50.079Z,4.13
2023-05-02T06:58:17.657Z,3.38
2023-05-02T07:00:45.172Z,3.40
2023-05-02T07:03:12.927Z,2.92
2023-05-02T07:05:40.513Z,4.00
2023-05-02T07:08:08.124Z,3.35
2023-05-02T07:10:35.638Z,3.55
2023-05-02T07:13:03.223Z,3.88
2023-05-02T07:15:30.727Z,3.60
2023-05-02T07:17:58.175Z,3.38
2023-05-02T07:20:25.973Z,3.05
2023-05-02T07:22:53.455Z,3.70
2023-05-02T07:25:20.947Z,3.72
2023-05-02T07:27:48.460Z,3.20
2023-05-02T07:30:16.038Z,3.75
2023-05-02T07:32:43.478Z,4.07
2023-05-02T07:35:10.900Z,4.22
2023-05-02T07:37:38.506Z,3.78
2023-05-02T07:40:07.747Z,3.88
2023-05-02T07:42:36.570Z,3.90
2023-05-02T07:45:04.162Z,4.18
2023-05-02T07:47:32.562Z,3.88
2023-05-02T07:50:00.523Z,3.47
2023-05-02T07:52:28.374Z,3.80
2023-05-02T07:54:55.958Z,3.80
2023-05-02T07:57:24.037Z,4.00
2023-05-02T07:59:51.599Z,4.05
2023-05-02T08:02:21.093Z,3.55
2023-05-02T08:04:49.426Z,3.78
2023-05-02T08:07:17.317Z,2.80
2023-05-02T08:09:44.858Z,3.05
2023-05-02T08:12:12.416Z,2.95
2023-05-02T08:14:39.802Z,3.85
2023-05-02T08:17:07.328Z,3.80
2023-05-02T08:19:34.859Z,3.60
2023-05-02T08:22:02.353Z,3.88
2023-05-02T08:24:31.296Z,3.70
2023-05-02T08:26:58.795Z,3.50
2023-05-02T08:29:26.335Z,3.58
2023-05-02T08:31:53.878Z,3.63
2023-05-02T08:34:21.568Z,3.40
2023-05-02T08:36:49.086Z,3.53
2023-05-02T08:39:17.324Z,3.70
2023-05-02T08:41:45.226Z,3.58
2023-05-02T08:44:12.693Z,3.50
2023-05-02T08:46:42.367Z,3.60
2023-05-02T08:49:16.211Z,3.53
2023-05-02T08:51:45.726Z,4.30
2023-05-02T08:54:17.545Z,4.18
2023-05-02T08:56:46.406Z,3.60
2023-05-02T08:59:13.825Z,3.70
2023-05-02T09:01:46.538Z,3.75
2023-05-02T09:04:15.123Z,3.78
2023-05-02T09:06:42.868Z,3.30
2023-05-02T09:09:10.501Z,3.65
2023-05-02T09:11:38.368Z,3.83
2023-05-02T09:14:15.734Z,3.67
2023-05-02T09:16:43.630Z,3.58
2023-05-02T09:19:11.830Z,3.60
2023-05-02T09:21:41.542Z,3.60
2023-05-02T09:24:35.465Z,3.97
2023-05-02T09:27:04.797Z,3.58
2023-05-02T09:29:38.269Z,3.67
2023-05-02T09:32:07.248Z,3.80
2023-05-02T09:34:35.209Z,3.63
2023-05-02T09:37:05.818Z,3.20
2023-05-02T09:39:33.410Z,3.80
2023-05-02T09:42:01.796Z,3.80
2023-05-02T09:44:37.828Z,3.05
2023-05-02T09:47:07.170Z,4.60
2023-05-02T09:49:47.113Z,3.90
2023-05-02T09:52:17.007Z,4.13
2023-05-02T09:54:47.094Z,3.42
2023-05-02T09:57:14.709Z,3.88
2023-05-02T09:59:53.187Z,3.90
2023-05-02T10:02:22.194Z,3.70
2023-05-02T10:04:51.033Z,3.75
2023-05-02T10:07:18.616Z,3.63
2023-05-02T10:09:47.674Z,3.55
2023-05-02T10:12:17.139Z,3.75
2023-05-02T10:14:57.022Z,1.92
2023-05-02T10:17:42.525Z,3.00
2023-05-02T10:20:11.985Z,2.88
2023-05-02T10:22:40.572Z,3.63
2023-05-02T10:25:08.628Z,3.40
2023-05-02T10:27:38.004Z,3.40
2023-05-02T10:30:06.822Z,3.47
2023-05-02T10:32:35.051Z,3.80
2023-05-02T10:35:07.225Z,3.75
2023-05-02T10:37:37.305Z,3.30
2023-05-02T10:40:06.629Z,3.55
2023-05-02T10:42:40.570Z,3.88
2023-05-02T10:45:37.940Z,3.70
2023-05-02T10:48:23.412Z,3.35
2023-05-02T10:50:59.056Z,3.10
2023-05-02T10:53:30.486Z,4.10
2023-05-02T10:56:23.003Z,3.05
2023-05-02T10:58:52.366Z,2.95
2023-05-02T11:01:29.082Z,3.50
2023-05-02T11:03:59.739Z,3.47
2023-05-02T11:06:29.238Z,3.13
2023-05-02T11:09:21.584Z,3.35
2023-05-02T11:11:52.806Z,3.10
2023-05-02T11:14:26.943Z,3.45
2023-05-02T11:17:06.584Z,3.80
2023-05-02T11:19:46.189Z,4.03
2023-05-02T11:22:19.980Z,3.30
2023-05-02T11:24:48.729Z,3.83
2023-05-02T11:27:38.624Z,3.03
2023-05-02T11:30:07.344Z,3.42
2023-05-02T11:32:47.901Z,2.78
2023-05-02T11:35:23.270Z,3.80
2023-05-02T11:37:58.294Z,3.58
2023-05-02T11:40:27.449Z,3.30
2023-05-02T11:42:55.697Z,3.13
2023-05-02T11:45:32.753Z,3.33
2023-05-02T11:48:00.354Z,3.03
2023-05-02T11:50:30.592Z,3.10
2023-05-02T11:52:58.929Z,2.90
2023-05-02T11:55:27.487Z,2.80
2023-05-02T11:57:55.894Z,3.10
2023-05-02T12:00:28.423Z,3.10
2023-05-02T12:02:56.149Z,2.33
2023-05-02T12:05:30.650Z,2.72
2023-05-02T12:07:58.327Z,2.70
2023-05-02T12:10:36.799Z,2.30
2023-05-02T12:13:06.762Z,3.20
2023-05-02T12:15:34.363Z,2.88
2023-05-02T12:18:02.226Z,3.00
2023-05-02T12:20:29.946Z,2.78
2023-05-02T12:22:57.891Z,3.20
2023-05-02T12:25:25.374Z,2.80
2023-05-02T12:28:03.084Z,2.97
2023-05-02T12:30:32.087Z,3.22
2023-05-02T12:33:02.019Z,2.85
2023-05-02T12:35:31.032Z,3.10
2023-05-02T12:38:17.780Z,2.72
2023-05-02T12:40:50.916Z,3.10
2023-05-02T12:43:19.242Z,3.55
2023-05-02T12:45:48.806Z,2.90
2023-05-02T12:48:24.831Z,2.85
2023-05-02T12:50:53.560Z,3.17
2023-05-02T12:53:44.075Z,3.33
2023-05-02T12:56:13.576Z,3.10
2023-05-02T12:58:48.838Z,3.40
2023-05-02T13:01:16.661Z,2.78
2023-05-02T13:03:44.732Z,3.30
2023-05-02T13:06:12.241Z,3.15
2023-05-02T13:08:39.807Z,2.90
2023-05-02T13:11:07.349Z,2.85
2023-05-02T13:13:35.806Z,2.97
2023-05-02T13:16:03.807Z,3.15
2023-05-02T13:18:31.504Z,3.30
2023-05-02T13:20:58.964Z,2.92
2023-05-02T13:23:26.636Z,2.90
2023-05-02T13:25:54.105Z,2.65
2023-05-02T13:28:21.675Z,2.78
2023-05-02T13:30:49.136Z,2.95
2023-05-02T13:33:16.716Z,2.83
2023-05-02T13:35:44.131Z,2.40
2023-05-02T13:38:11.946Z,3.00
2023-05-02T13:40:39.382Z,2.88
2023-05-02T13:43:08.214Z,2.70
2023-05-02T13:45:36.015Z,3.10
2023-05-02T13:48:03.650Z,2.97
2023-05-02T13:50:31.191Z,3.20
2023-05-02T13:52:58.669Z,2.92
2023-05-02T13:55:26.536Z,3.10
2023-05-02T13:57:54.301Z,3.08
2023-05-02T14:00:21.862Z,2.80
2023-05-02T14:02:49.345Z,3.10
2023-05-02T14:05:16.916Z,3.30
2023-05-02T14:07:44.603Z,3.15
2023-05-02T14:10:12.220Z,2.80
2023-05-02T14:12:39.917Z,2.97
2023-05-02T14:15:08.101Z,2.97
2023-05-02T14:17:35.694Z,3.15
2023-05-02T14:20:03.622Z,3.40
2023-05-02T14:22:31.452Z,3.45
2023-05-02T14:24:58.843Z,3.58
2023-05-02T14:27:26.581Z,2.40
2023-05-02T14:29:54.026Z,2.90
2023-05-02T14:32:22.123Z,3.30
2023-05-02T14:34:49.618Z,3.53
2023-05-02T14:37:17.134Z,3.63
2023-05-02T14:39:47.915Z,3.40
2023-05-02T14:42:16.685Z,2.90
2023-05-02T14:44:44.780Z,3.00
2023-05-02T14:47:12.286Z,3.30
2023-05-02T14:49:39.815Z,3.58
2023-05-02T14:52:07.606Z,3.50
2023-05-02T14:54:35.257Z,2.92
2023-05-02T14:57:03.954Z,3.47
2023-05-02T14:59:31.935Z,3.70
2023-05-02T15:01:59.805Z,3.28
2023-05-02T15:04:28.332Z,2.83
2023-05-02T15:06:57.045Z,3.20
2023-05-02T15:09:26.817Z,3.40
2023-05-02T15:11:54.313Z,3.03
2023-05-02T15:14:22.055Z,3.03
2023-05-02T15:16:49.967Z,3.63
2023-05-02T15:19:17.571Z,3.78
2023-05-02T15:21:45.046Z,4.10
2023-05-02T15:24:13.280Z,2.92
2023-05-02T15:26:41.393Z,3.58
2023-05-02T15:29:08.855Z,3.38
2023-05-02T15:31:36.645Z,3.40
2023-05-02T15:34:04.213Z,3.22
2023-05-02T15:36:32.809Z,3.63
2023-05-02T15:39:00.214Z,3.58
2023-05-02T15:41:28.106Z,3.58
2023-05-02T15:43:55.690Z,3.28
2023-05-02T15:46:23.552Z,3.53
2023-05-02T15:48:51.395Z,3.28
2023-05-02T15:51:19.212Z,3.20
2023-05-02T15:53:50.355Z,3.15
2023-05-02T15:56:18.044Z,3.15
2023-05-02T15:58:46.819Z,3.47
2023-05-02T16:01:14.408Z,3.42
2023-05-02T16:03:42.304Z,3.60
2023-05-02T16:06:14.720Z,3.47
2023-05-02T16:08:44.312Z,3.65
2023-05-02T16:11:11.828Z,3.55
2023-05-02T16:13:39.358Z,3.55
2023-05-02T16:16:08.075Z,3.40
2023-05-02T16:18:35.626Z,3.50
2023-05-02T16:21:05.749Z,3.45
2023-05-02T16:23:33.258Z,4.72
2023-05-02T16:26:01.984Z,3.78
2023-05-02T16:28:30.070Z,4.07
2023-05-02T16:30:57.791Z,4.60
2023-05-02T16:33:30.338Z,5.40
2023-05-02T16:36:02.840Z,5.50
2023-05-02T16:38:30.956Z,4.78
2023-05-02T16:40:58.518Z,5.28
2023-05-02T16:43:26.354Z,5.63
2023-05-02T16:46:07.211Z,4.80
2023-05-02T16:48:35.350Z,5.20
2023-05-02T16:51:04.264Z,4.07
2023-05-02T16:53:32.487Z,4.38
2023-05-02T16:56:00.192Z,4.40
2023-05-02T16:58:30.851Z,4.63
2023-05-02T17:01:00.622Z,4.07
2023-05-02T17:03:29.817Z,4.50
2023-05-02T17:06:02.031Z,5.18
2023-05-02T17:08:29.937Z,4.63
2023-05-02T17:10:57.782Z,4.68
2023-05-02T17:13:25.304Z,4.10
2023-05-02T17:15:54.002Z,3.72
2023-05-02T17:18:22.189Z,3.78
2023-05-02T17:20:50.278Z,3.72
2023-05-02T17:23:18.036Z,3.80
2023-05-02T17:25:45.778Z,4.20
2023-05-02T17:28:13.337Z,4.25
2023-05-02T17:30:41.216Z,4.10
2023-05-02T17:33:08.875Z,4.15
2023-05-02T17:35:36.620Z,4.25
2023-05-02T17:38:04.136Z,3.55
2023-05-02T17:40:31.614Z,4.55
2023-05-02T17:42:59.557Z,4.00
2023-05-02T17:45:29.402Z,3.83
2023-05-02T17:47:57.167Z,4.05
2023-05-02T17:50:24.773Z,4.38
2023-05-02T17:52:52.278Z,4.22
2023-05-02T17:55:20.050Z,3.50
2023-05-02T17:57:47.761Z,4.70
2023-05-02T18:00:15.737Z,3.58
2023-05-02T18:02:44.500Z,4.18
2023-05-02T18:05:13.004Z,3.90
2023-05-02T18:07:40.544Z,3.63
2023-05-02T18:10:08.339Z,3.80
2023-05-02T18:12:36.382Z,3.80
2023-05-02T18:15:05.753Z,3.85
2023-05-02T18:17:33.835Z,3.70
2023-05-02T18:20:04.695Z,3.67
2023-05-02T18:22:35.876Z,3.63
2023-05-02T18:25:03.723Z,3.80
2023-05-02T18:27:31.604Z,4.03
2023-05-02T18:29:59.075Z,3.83
2023-05-02T18:32:26.993Z,3.92
2023-05-02T18:34:54.879Z,4.10
2023-05-02T18:37:27.923Z,4.20
2023-05-02T18:39:55.494Z,4.20
2023-05-02T18:42:23.045Z,4.80
2023-05-02T18:44:50.551Z,4.72
2023-05-02T18:47:18.047Z,4.80
2023-05-02T18:49:46.140Z,4.47
2023-05-02T18:52:13.808Z,4.88
2023-05-02T18:54:41.271Z,5.00
2023-05-02T18:57:08.876Z,4.65
2023-05-02T18:59:36.443Z,5.07
2023-05-02T19:02:04.017Z,3.97
2023-05-02T19:04:32.195Z,4.10
2023-05-02T19:06:59.815Z,4.45
2023-05-02T19:09:27.245Z,4.70
2023-05-02T19:11:55.389Z,4.47
2023-05-02T19:14:22.832Z,3.88
2023-05-02T19:16:51.192Z,4.32
2023-05-02T19:19:18.796Z,4.28
2023-05-02T19:21:48.352Z,4.63
2023-05-02T19:24:15.876Z,4.90
2023-05-02T19:26:43.332Z,4.30
2023-05-02T19:29:11.071Z,4.50
2023-05-02T19:31:39.930Z,4.53
2023-05-02T19:34:07.369Z,4.68
2023-05-02T19:36:34.848Z,5.20
2023-05-02T19:39:02.364Z,4.95
2023-05-02T19:41:29.887Z,5.00
2023-05-02T19:43:59.183Z,5.40
2023-05-02T19:46:27.171Z,4.55
2023-05-02T19:48:54.736Z,4.72
2023-05-02T19:51:25.729Z,4.55
2023-05-02T19:53:54.133Z,4.78
2023-05-02T19:56:21.967Z,5.20
2023-05-02T19:58:49.441Z,4.65
2023-05-02T20:01:16.885Z,4.57
2023-05-02T20:03:44.621Z,4.68
2023-05-02T20:06:12.246Z,4.28
2023-05-02T20:08:40.030Z,4.13
2023-05-02T20:11:07.506Z,4.50
2023-05-02T20:13:34.931Z,4.65
2023-05-02T20:16:02.943Z,4.55
2023-05-02T20:18:30.317Z,4.57
2023-05-02T20:20:58.581Z,4.32
2023-05-02T20:23:26.027Z,4.40
2023-05-02T20:25:53.578Z,4.72
2023-05-02T20:28:21.076Z,4.35
2023-05-02T20:30:48.591Z,4.00
2023-05-02T20:33:17.682Z,4.05
2023-05-02T20:35:45.988Z,4.03
2023-05-02T20:38:13.662Z,4.80
2023-05-02T20:40:42.916Z,4.97
2023-05-02T20:43:10.403Z,4.95
2023-05-02T20:45:39.132Z,4.35
2023-05-02T20:48:06.804Z,4.30
2023-05-02T20:50:34.312Z,4.88
2023-05-02T20:53:01.831Z,4.88
2023-05-02T20:55:29.397Z,4.50
2023-05-02T20:57:57.024Z,4.40
2023-05-02T21:00:24.739Z,4.22
2023-05-02T21:02:52.280Z,4.25
2023-05-02T21:05:19.828Z,4.10
2023-05-02T21:07:47.317Z,4.07
2023-05-02T21:10:15.291Z,3.92
2023-05-02T21:12:42.758Z,3.72
2023-05-02T21:15:10.663Z,4.32
2023-05-02T21:17:39.411Z,4.10
2023-05-02T21:20:07.865Z,4.32
2023-05-02T21:22:35.234Z,4.00
2023-05-02T21:25:02.777Z,4.07
2023-05-02T21:27:30.633Z,4.38
2023-05-02T21:29:58.238Z,4.30
2023-05-02T21:32:26.189Z,4.60
2023-05-02T21:34:53.698Z,4.40
2023-05-02T21:37:21.199Z,4.22
2023-05-02T21:39:48.668Z,4.15
2023-05-02T21:42:16.188Z,3.80
2023-05-02T21:44:43.705Z,4.05
2023-05-02T21:47:11.371Z,4.47
2023-05-02T21:49:38.888Z,4.60
2023-05-02T21:52:06.375Z,4.72
2023-05-02T21:54:34.088Z,4.18
2023-05-02T21:57:03.031Z,4.85
2023-05-02T21:59:30.560Z,4.75
2023-05-02T22:01:57.976Z,4.38
2023-05-02T22:04:25.460Z,4.30
2023-05-02T22:06:53.641Z,4.60
2023-05-02T22:09:21.946Z,4.93
2023-05-02T22:11:49.409Z,4.07
2023-05-02T22:14:16.944Z,4.47
2023-05-02T22:16:44.480Z,4.30
2023-05-02T22:19:14.917Z,4.57
2023-05-02T22:21:42.739Z,4.32
2023-05-02T22:24:10.205Z,4.47
2023-05-02T22:26:37.697Z,4.45
2023-05-02T22:29:05.275Z,4.38
2023-05-02T22:31:32.755Z,4.30
2023-05-02T22:34:00.324Z,4.43
2023-05-02T22:36:28.052Z,3.95
2023-05-02T22:38:55.736Z,4.20
2023-05-02T22:41:23.230Z,4.63
2023-05-02T22:43:50.628Z,4.50
2023-05-02T22:46:18.855Z,4.97
2023-05-02T22:48:46.422Z,4.85
2023-05-02T22:51:14.209Z,4.60
2023-05-02T22:53:42.262Z,4.88
2023-05-02T22:56:09.811Z,5.15
2023-05-02T22:58:37.319Z,4.85
2023-05-02T23:01:04.963Z,4.93
2023-05-02T23:03:32.743Z,5.10
2023-05-02T23:06:00.444Z,4.75
2023-05-02T23:08:27.929Z,4.53
2023-05-02T23:10:56.280Z,4.47
2023-05-02T23:13:24.015Z,4.68
2023-05-02T23:15:55.137Z,4.68
2023-05-02T23:18:23.151Z,4.70
2023-05-02T23:20:50.987Z,4.35
2023-05-02T23:23:18.548Z,4.60
2023-05-02T23:25:46.105Z,4.43
2023-05-02T23:28:13.636Z,4.75
2023-05-02T23:30:41.608Z,4.80
2023-05-02T23:33:09.397Z,5.03
2023-05-02T23:35:36.891Z,5.05
2023-05-02T23:38:08.199Z,5.25
2023-05-02T23:40:35.896Z,4.95
2023-05-02T23:43:05.503Z,5.07
2023-05-02T23:45:33.432Z,4.50
2023-05-02T23:48:00.954Z,4.88
2023-05-02T23:50:28.836Z,4.90
2023-05-02T23:52:56.417Z,4.90
2023-05-02T23:55:23.975Z,5.30
2023-05-02T23:57:51.411Z,4.80
